createdAt,value
2022-10-20T00:03:58.126Z,8.48
2022-10-20T00:09:05.336Z,7.93
2022-10-20T00:14:09.104Z,8.85
2022-10-20T00:19:13.499Z,8.82
2022-10-20T00:24:20.776Z,8.88
2022-10-20T00:29:24.495Z,9.88
2022-10-20T00:34:28.145Z,9.45
2022-10-20T00:39:33.385Z,9.35
2022-10-20T00:45:01.667Z,9.80
2022-10-20T00:55:16.493Z,10.68
2022-10-20T01:05:24.003Z,10.38
2022-10-20T01:10:37.291Z,10.35
2022-10-20T01:15:47.204Z,11.50
2022-10-20T01:21:05.684Z,11.88
2022-10-20T01:31:31.735Z,11.40
2022-10-20T01:36:40.834Z,12.30
2022-10-20T01:41:50.362Z,11.50
2022-10-20T01:46:57.840Z,14.70
2022-10-20T01:52:01.807Z,13.13
2022-10-20T01:57:18.792Z,13.60
2022-10-20T02:02:36.547Z,13.68
2022-10-20T02:07:40.711Z,13.30
2022-10-20T02:12:50.065Z,14.73
2022-10-20T02:18:01.906Z,13.30
2022-10-20T02:23:07.590Z,14.50
2022-10-20T02:28:14.203Z,14.05
2022-10-20T02:33:21.073Z,14.65
2022-10-20T02:38:24.891Z,15.50
2022-10-20T02:43:28.547Z,14.52
2022-10-20T02:48:33.564Z,15.35
2022-10-20T02:53:37.216Z,14.32
2022-10-20T02:58:40.860Z,14.23
2022-10-20T03:03:45.948Z,14.95
2022-10-20T03:08:49.615Z,14.30
2022-10-20T03:13:53.358Z,17.45
2022-10-20T03:19:01.593Z,14.07
2022-10-20T03:24:08.426Z,14.65
2022-10-20T03:29:12.079Z,16.02
2022-10-20T03:34:17.132Z,16.08
2022-10-20T03:39:20.947Z,17.35
2022-10-20T03:44:24.675Z,17.30
2022-10-20T03:49:31.503Z,16.92
2022-10-20T03:54:36.928Z,17.27
2022-10-20T03:59:40.789Z,16.55
2022-10-20T04:04:45.813Z,17.62
2022-10-20T04:09:49.451Z,20.80
2022-10-20T04:14:53.107Z,18.08
2022-10-20T04:19:58.082Z,18.62
2022-10-20T04:25:01.833Z,19.40
2022-10-20T04:30:06.100Z,19.15
2022-10-20T04:35:11.408Z,20.65
2022-10-20T04:40:15.032Z,19.52
2022-10-20T04:45:18.977Z,19.48
2022-10-20T04:50:24.136Z,19.50
2022-10-20T04:55:42.858Z,19.10
2022-10-20T05:00:46.512Z,19.90
2022-10-20T05:05:51.471Z,20.45
2022-10-20T05:10:55.151Z,20.33
2022-10-20T05:15:58.836Z,19.52
2022-10-20T05:21:09.701Z,20.58
2022-10-20T05:26:15.884Z,18.08
2022-10-20T05:31:22.218Z,20.00
2022-10-20T05:36:28.348Z,19.98
2022-10-20T05:41:36.473Z,20.35
2022-10-20T05:46:42.829Z,21.42
2022-10-20T05:51:48.799Z,21.08
2022-10-20T05:56:52.471Z,20.67
2022-10-20T06:01:56.224Z,21.52
2022-10-20T06:07:01.263Z,21.37
2022-10-20T06:12:05.787Z,22.83
2022-10-20T06:17:10.671Z,22.17
2022-10-20T06:22:15.712Z,20.65
2022-10-20T06:27:19.388Z,19.87
2022-10-20T06:32:23.101Z,20.92
2022-10-20T06:37:28.136Z,21.42
2022-10-20T06:42:32.191Z,21.12
2022-10-20T06:47:37.184Z,20.10
2022-10-20T06:52:42.381Z,19.83
2022-10-20T06:57:46.045Z,19.50
2022-10-20T07:02:49.804Z,18.73
2022-10-20T07:07:54.995Z,18.90
2022-10-20T07:12:58.757Z,18.98
2022-10-20T07:18:02.519Z,19.70
2022-10-20T07:23:07.542Z,18.50
2022-10-20T07:28:11.195Z,19.40
2022-10-20T07:33:14.854Z,18.08
2022-10-20T07:38:19.893Z,17.42
2022-10-20T07:43:23.631Z,16.55
2022-10-20T07:48:27.597Z,17.10
2022-10-20T07:53:32.633Z,16.33
2022-10-20T07:58:36.307Z,17.60
2022-10-20T08:03:40.201Z,16.37
2022-10-20T08:08:45.257Z,18.00
2022-10-20T08:13:49.072Z,15.85
2022-10-20T08:19:06.741Z,15.55
2022-10-20T08:24:11.736Z,15.33
2022-10-20T08:29:15.441Z,16.15
2022-10-20T08:34:19.123Z,15.38
2022-10-20T08:39:24.458Z,15.30
2022-10-20T08:44:31.460Z,14.23
2022-10-20T08:49:36.580Z,16.10
2022-10-20T08:54:41.752Z,14.82
2022-10-20T08:59:45.520Z,14.63
2022-10-20T09:04:52.592Z,14.95
2022-10-20T09:10:05.621Z,14.35
2022-10-20T09:15:12.095Z,13.43
2022-10-20T09:20:21.760Z,14.77
2022-10-20T09:25:27.599Z,13.50
2022-10-20T09:30:35.457Z,13.15
2022-10-20T09:35:40.868Z,14.15
2022-10-20T09:40:54.764Z,14.38
2022-10-20T09:46:04.925Z,14.95
2022-10-20T09:51:15.667Z,15.68
2022-10-20T09:56:27.307Z,15.35
2022-10-20T10:01:31.462Z,15.30
2022-10-20T10:06:42.887Z,15.68
2022-10-20T10:11:48.042Z,16.62
2022-10-20T10:16:51.992Z,16.17
2022-10-20T10:21:58.163Z,17.17
2022-10-20T10:27:03.421Z,18.25
2022-10-20T10:32:16.149Z,18.23
2022-10-20T10:42:44.124Z,18.62
2022-10-20T10:48:16.941Z,19.52
2022-10-20T10:53:29.859Z,18.65
2022-10-20T10:58:46.006Z,19.15
2022-10-20T11:04:07.477Z,20.30
2022-10-20T11:09:23.848Z,20.62
2022-10-20T11:14:42.823Z,19.73
2022-10-20T11:20:12.164Z,20.40
2022-10-20T11:25:28.340Z,20.00
2022-10-20T11:30:35.302Z,19.70
2022-10-20T11:35:43.315Z,20.92
2022-10-20T11:40:53.649Z,19.37
2022-10-20T11:46:03.597Z,19.80
2022-10-20T11:51:46.280Z,20.23
2022-10-20T11:56:59.835Z,20.95
2022-10-20T12:02:25.461Z,22.70
2022-10-20T12:08:24.740Z,21.05
2022-10-20T12:13:36.511Z,21.37
2022-10-20T12:19:07.661Z,21.12
2022-10-20T12:24:44.131Z,19.42
2022-10-20T12:30:00.638Z,19.33
2022-10-20T12:35:31.601Z,19.30
2022-10-20T12:40:45.191Z,19.37
2022-10-20T12:45:49.162Z,17.95
2022-10-20T12:50:55.040Z,16.77
2022-10-20T12:56:00.921Z,15.45
2022-10-20T13:01:09.833Z,14.65
2022-10-20T13:06:43.741Z,13.10
2022-10-20T13:11:57.686Z,15.38
2022-10-20T13:17:13.777Z,13.50
2022-10-20T13:22:38.951Z,11.35
2022-10-20T13:27:42.744Z,9.68
2022-10-20T13:33:11.465Z,8.25
2022-10-20T13:38:27.521Z,8.65
2022-10-20T13:43:39.336Z,8.23
2022-10-20T13:48:56.884Z,7.80
2022-10-20T13:54:05.645Z,7.28
2022-10-20T14:04:29.698Z,8.13
2022-10-20T14:09:35.038Z,8.32
2022-10-20T14:14:44.638Z,7.53
2022-10-20T14:19:48.476Z,7.43
2022-10-20T14:24:55.726Z,6.78
2022-10-20T14:30:00.833Z,6.03
2022-10-20T14:35:19.919Z,5.50
2022-10-20T14:40:27.807Z,6.35
2022-10-20T14:50:40.975Z,5.15
2022-10-20T14:55:46.119Z,4.55
2022-10-20T15:00:49.948Z,5.30
2022-10-20T15:05:53.938Z,4.28
2022-10-20T15:10:59.597Z,4.37
2022-10-20T15:16:04.694Z,6.05
2022-10-20T15:21:09.144Z,4.40
2022-10-20T15:26:15.323Z,5.00
2022-10-20T15:31:23.382Z,6.55
2022-10-20T15:36:31.897Z,6.45
2022-10-20T15:41:37.864Z,4.72
2022-10-20T15:46:42.220Z,5.97
2022-10-20T15:51:47.181Z,6.15
2022-10-20T15:56:52.252Z,6.32
2022-10-20T16:01:56.005Z,4.70
2022-10-20T16:07:02.813Z,6.07
2022-10-20T16:12:08.438Z,5.27
2022-10-20T16:17:12.148Z,10.27
2022-10-20T16:22:15.936Z,8.93
2022-10-20T16:27:21.018Z,8.88
2022-10-20T16:32:25.032Z,7.97
2022-10-20T16:37:28.789Z,9.10
2022-10-20T16:42:33.877Z,9.00
2022-10-20T16:47:37.852Z,7.25
2022-10-20T16:52:41.719Z,8.93
2022-10-20T16:57:46.712Z,8.88
2022-10-20T17:02:52.911Z,8.27
2022-10-20T17:07:56.644Z,7.37
2022-10-20T17:13:01.797Z,6.72
2022-10-20T17:18:05.586Z,6.40
2022-10-20T17:23:09.288Z,7.10
2022-10-20T17:28:14.312Z,6.82
2022-10-20T17:33:18.138Z,7.28
2022-10-20T17:38:22.574Z,6.97
2022-10-20T17:43:28.981Z,8.80
2022-10-20T17:48:33.113Z,9.05
2022-10-20T17:53:38.440Z,10.10
2022-10-20T17:58:45.699Z,10.43
2022-10-20T18:03:54.456Z,11.40
2022-10-20T18:08:59.873Z,10.13
2022-10-20T18:14:06.043Z,11.60
2022-10-20T18:19:14.849Z,11.15
2022-10-20T18:24:19.411Z,10.95
2022-10-20T18:29:25.519Z,11.02
2022-10-20T18:34:29.291Z,11.25
2022-10-20T18:39:33.086Z,11.45
2022-10-20T18:44:38.080Z,12.70
2022-10-20T18:49:41.883Z,11.93
2022-10-20T18:54:45.604Z,11.25
2022-10-20T18:59:51.768Z,11.70
2022-10-20T19:04:55.999Z,12.43
2022-10-20T19:09:59.686Z,11.95
2022-10-20T19:15:05.141Z,12.15
2022-10-20T19:20:09.252Z,11.98
2022-10-20T19:25:12.934Z,12.32
2022-10-20T19:30:18.449Z,12.15
2022-10-20T19:35:22.348Z,12.88
2022-10-20T19:40:28.329Z,12.40
2022-10-20T19:45:33.738Z,12.40
2022-10-20T19:50:37.527Z,10.63
2022-10-20T19:55:41.224Z,10.80
2022-10-20T20:00:47.152Z,11.07
2022-10-20T20:05:58.139Z,10.20
2022-10-20T20:11:03.427Z,11.38
2022-10-20T20:16:09.868Z,11.23
2022-10-20T20:21:14.414Z,10.65
2022-10-20T20:26:18.164Z,10.13
2022-10-20T20:31:24.187Z,10.60
2022-10-20T20:36:28.703Z,10.50
2022-10-20T20:41:32.407Z,10.80
2022-10-20T20:46:37.896Z,10.60
2022-10-20T20:51:41.558Z,10.23
2022-10-20T20:56:45.249Z,10.57
2022-10-20T21:01:50.383Z,10.80
2022-10-20T21:07:02.071Z,9.80
2022-10-20T21:12:06.329Z,10.95
2022-10-20T21:17:11.459Z,10.43
2022-10-20T21:22:15.154Z,10.52
2022-10-20T21:27:18.822Z,9.38
2022-10-20T21:32:23.924Z,11.68
2022-10-20T21:37:29.096Z,10.95
2022-10-20T21:42:32.775Z,11.12
2022-10-20T21:47:37.876Z,10.05
2022-10-20T21:52:41.517Z,11.35
2022-10-20T21:57:45.269Z,11.10
2022-10-20T22:02:51.017Z,10.35
2022-10-20T22:07:54.688Z,10.10
2022-10-20T22:12:58.406Z,11.30
2022-10-20T22:18:03.492Z,11.15
2022-10-20T22:23:07.135Z,11.63
2022-10-20T22:28:10.807Z,14.35
2022-10-20T22:33:15.825Z,16.65
2022-10-20T22:38:19.627Z,10.73
2022-10-20T22:43:23.267Z,11.80
2022-10-20T22:48:28.444Z,11.68
2022-10-20T22:53:32.190Z,10.85
2022-10-20T22:58:35.944Z,12.25
2022-10-20T23:03:41.588Z,10.90
2022-10-20T23:08:46.933Z,10.90
2022-10-20T23:13:51.146Z,10.93
2022-10-20T23:18:56.372Z,13.02
2022-10-20T23:24:00.042Z,13.07
2022-10-20T23:29:03.656Z,12.93
2022-10-20T23:34:09.808Z,13.43
2022-10-20T23:39:13.553Z,13.15
2022-10-20T23:44:17.281Z,13.07
2022-10-20T23:49:22.260Z,12.25
2022-10-20T23:54:26.088Z,13.62
2022-10-20T23:59:29.710Z,13.95
